No.21 Houeimaru — JG5024 — position and weather

sailwx.info

Track history (hours):
 
Tides and Currents Weather Stations Pressure Air Temp Water Temp Dewpoint Dewpoint Depression Visibility Wind Speed Wind Dir Waves Ship Positions

No.21 Houeimaru

Last reported at 2017-Dec-11 16:57 UTC. Time now 2017-Dec-11 22:56 UTC.
Position N 35°29' E 139°42'.

Length 50 m.

Type: Tanker. MMSI: 431009275.

Date/timePositionNaut miles runAvg speedWind from/ knotsBaromVisibWave heightAir tempDewpointWater temp
2017-Dec-11 16:57N 35°29' E 139°42'0 0.0
2017-Dec-11 16:30N 35°29' E 139°42'0 0.0
2017-Dec-11 15:54N 35°29' E 139°42'0 0.0
2017-Dec-11 15:30N 35°29' E 139°42'0 0.0
2017-Dec-11 15:00N 35°29' E 139°42'0 0.0
2017-Dec-11 14:27N 35°29' E 139°42'0 0.0
2017-Dec-11 14:00N 35°29' E 139°42'0 0.0
2017-Dec-11 13:24N 35°29' E 139°42'0 0.0
2017-Dec-11 13:00N 35°29' E 139°42'0 0.0
2017-Dec-11 12:24N 35°29' E 139°42'0 0.0
2017-Dec-11 12:00N 35°29' E 139°42'0 0.0
2017-Dec-11 11:18N 35°29' E 139°42'0 0.0
2017-Dec-11 10:57N 35°29' E 139°42'0 0.0
2017-Dec-11 10:21N 35°29' E 139°42'0 0.0
2017-Dec-11 09:57N 35°29' E 139°42'0 0.0
2017-Dec-11 09:30N 35°29' E 139°42'0 0.0
2017-Dec-11 09:00N 35°29' E 139°42'0 0.0
2017-Dec-11 08:30N 35°29' E 139°42'0 0.0
2017-Dec-11 07:51N 35°29' E 139°42'0 0.0
2017-Dec-11 07:03N 35°29' E 139°42'0 0.0
2017-Dec-11 06:51N 35°29' E 139°42'0 0.0
2017-Dec-11 06:30N 35°29' E 139°42'0 0.0
2017-Dec-11 06:00N 35°29' E 139°42'3 5.5
2017-Dec-11 05:30N 35°30' E 139°45'1 0.6
2017-Dec-11 03:16N 35°31' E 139°46'2 6.1
2017-Dec-11 03:00N 35°30' E 139°47'510.1
2017-Dec-11 02:30N 35°26' E 139°44'4 8.1
2017-Dec-11 02:00N 35°24' E 139°39'1 1.4
2017-Dec-11 01:22N 35°24' E 139°38'0 0.0
2017-Dec-11 00:58N 35°24' E 139°38'0 0.0
2017-Dec-11 00:28N 35°24' E 139°38'0 0.0
2017-Dec-10 23:58N 35°24' E 139°38'0 0.0
2017-Dec-10 23:28N 35°24' E 139°38'0 1.0
2017-Dec-10 23:00N 35°25' E 139°39'3 4.9
2017-Dec-10 22:30N 35°24' E 139°41'4 8.7
2017-Dec-10 22:00N 35°28' E 139°42'1 2.2
2017-Dec-10 21:24N 35°29' E 139°42'0 0.0
2017-Dec-10 21:00N 35°29' E 139°42'0 0.0
2017-Dec-10 20:30N 35°29' E 139°42'0 0.0
2017-Dec-10 19:51N 35°29' E 139°42'0 0.0
2017-Dec-10 19:30N 35°29' E 139°42'0 0.0
2017-Dec-10 18:51N 35°29' E 139°42'0 0.0
2017-Dec-10 18:30N 35°29' E 139°42'0 0.0
2017-Dec-10 18:00N 35°29' E 139°42'0 0.0
2017-Dec-10 17:30N 35°29' E 139°42'0 0.0
2017-Dec-10 16:57N 35°29' E 139°42'0 0.0
2017-Dec-10 16:30N 35°29' E 139°42'0 0.0
2017-Dec-10 15:57N 35°29' E 139°42'0 0.0
2017-Dec-10 15:24N 35°29' E 139°42'0 0.0
2017-Dec-10 14:57N 35°29' E 139°42'0 0.0
2017-Dec-10 14:30N 35°29' E 139°42'0 0.0
2017-Dec-10 14:00N 35°29' E 139°42'0 0.0
2017-Dec-10 13:30N 35°29' E 139°42'0 0.0
2017-Dec-10 12:54N 35°29' E 139°42'0 0.0
2017-Dec-10 12:27N 35°29' E 139°42'0 0.0
2017-Dec-10 12:00N 35°29' E 139°42'0 0.0
2017-Dec-10 11:30N 35°29' E 139°42'0 0.0
2017-Dec-10 10:54N 35°29' E 139°42'0 0.0
2017-Dec-10 10:30N 35°29' E 139°42'0 0.0
2017-Dec-10 10:00N 35°29' E 139°42'0 0.0
2017-Dec-10 09:24N 35°29' E 139°42'0 0.0
2017-Dec-10 08:51N 35°29' E 139°42'0 0.0
2017-Dec-10 08:30N 35°29' E 139°42'0 0.0
2017-Dec-10 08:00N 35°29' E 139°42'0 0.0
2017-Dec-10 07:30N 35°29' E 139°42'0 0.0
2017-Dec-10 07:00N 35°29' E 139°42'0 0.0
2017-Dec-10 06:27N 35°29' E 139°42'0 0.0
2017-Dec-10 06:00N 35°29' E 139°42'0 0.0
2017-Dec-10 05:30N 35°29' E 139°42'0 0.0
2017-Dec-10 04:57N 35°29' E 139°42'2 5.1
2017-Dec-10 04:30N 35°27' E 139°43'4 7.9
2017-Dec-10 03:58N 35°30' E 139°48'2 1.3
2017-Dec-10 02:43N 35°31' E 139°46'0 0.0
2017-Dec-10 02:27N 35°31' E 139°46'3 5.5
2017-Dec-10 02:00N 35°28' E 139°46'510.1
2017-Dec-10 01:30N 35°24' E 139°42'2 4.0
2017-Dec-10 01:00N 35°24' E 139°40'0 0.0
2017-Dec-10 00:30N 35°24' E 139°40'0 0.0
2017-Dec-09 23:57N 35°24' E 139°40'0 0.0
2017-Dec-09 23:27N 35°24' E 139°40'2 3.7
2017-Dec-09 23:00N 35°23' E 139°41'610.5
2017-Dec-09 22:28N 35°29' E 139°42'0 0.2
2017-Dec-09 21:57N 35°29' E 139°42'0 0.0
2017-Dec-09 21:24N 35°29' E 139°42'0 0.0
2017-Dec-09 21:00N 35°29' E 139°42'0 0.0
2017-Dec-09 20:30N 35°29' E 139°42'0 0.0
2017-Dec-09 19:54N 35°29' E 139°42'0 0.0
2017-Dec-09 19:30N 35°29' E 139°42'0 0.0
2017-Dec-09 19:00N 35°29' E 139°42'0 0.0
2017-Dec-09 18:30N 35°29' E 139°42'0 0.0
2017-Dec-09 18:00N 35°29' E 139°42'0 0.0
2017-Dec-09 17:30N 35°29' E 139°42'0 0.0
2017-Dec-09 17:00N 35°29' E 139°42'0 0.0
2017-Dec-09 16:30N 35°29' E 139°42'0 0.0
2017-Dec-09 16:00N 35°29' E 139°42'0 0.0
2017-Dec-09 15:27N 35°29' E 139°42'0 0.0
2017-Dec-09 15:00N 35°29' E 139°42'0 0.0
2017-Dec-09 14:30N 35°29' E 139°42'0 0.0
2017-Dec-09 13:51N 35°29' E 139°42'0 0.0
2017-Dec-09 13:24N 35°29' E 139°42'0 0.0
2017-Dec-09 13:00N 35°29' E 139°42'0 0.0
2017-Dec-09 12:30N 35°29' E 139°42'0 0.0
2017-Dec-09 11:54N 35°29' E 139°42'0 0.0
2017-Dec-09 11:27N 35°29' E 139°42'0 0.0
2017-Dec-09 11:00N 35°29' E 139°42'0 0.0
2017-Dec-09 10:27N 35°29' E 139°42'0 0.0
2017-Dec-09 09:57N 35°29' E 139°42'0 0.0
2017-Dec-09 09:30N 35°29' E 139°42'0 0.0
2017-Dec-09 08:57N 35°29' E 139°42'0 0.0
2017-Dec-09 08:24N 35°29' E 139°42'0 0.0
2017-Dec-09 07:54N 35°29' E 139°42'0 0.0
2017-Dec-09 07:30N 35°29' E 139°42'0 0.0
2017-Dec-09 06:48N 35°29' E 139°42'0 0.0
2017-Dec-09 06:30N 35°29' E 139°42'0 0.0
2017-Dec-09 05:57N 35°29' E 139°42'0 0.0
2017-Dec-09 05:24N 35°29' E 139°42'0 0.0
2017-Dec-09 05:00N 35°29' E 139°42'0 0.0
2017-Dec-09 04:24N 35°29' E 139°42'0 0.0
2017-Dec-09 04:00N 35°29' E 139°42'0 0.0
2017-Dec-09 03:27N 35°29' E 139°42'0 0.0
2017-Dec-09 02:57N 35°29' E 139°42'0 0.0
2017-Dec-09 02:24N 35°29' E 139°42'0 0.0
2017-Dec-09 01:57N 35°29' E 139°42'0 0.0
2017-Dec-09 01:27N 35°29' E 139°42'0 0.0
2017-Dec-09 00:51N 35°29' E 139°42'0 0.0
2017-Dec-09 00:27N 35°29' E 139°42'0 0.0
2017-Dec-08 23:57N 35°29' E 139°42'0 0.0
2017-Dec-08 23:30N 35°29' E 139°42'0 0.0
2017-Dec-08 23:00N 35°29' E 139°42'0 0.0
2017-Dec-08 22:21N 35°29' E 139°42'0 0.0
2017-Dec-08 22:00N 35°29' E 139°42'0 0.0
2017-Dec-08 21:27N 35°29' E 139°42'0 0.0
2017-Dec-08 21:00N 35°29' E 139°42'0 0.0
2017-Dec-08 20:21N 35°29' E 139°42'0 0.0
2017-Dec-08 20:00N 35°29' E 139°42'0 0.0
2017-Dec-08 19:30N 35°29' E 139°42'0 0.0
2017-Dec-08 19:00N 35°29' E 139°42'0 0.0
2017-Dec-08 18:30N 35°29' E 139°42'0 0.0
2017-Dec-08 18:00N 35°29' E 139°42'0 0.0
2017-Dec-08 17:24N 35°29' E 139°42'0 0.0
2017-Dec-08 16:51N 35°29' E 139°42'0 0.0
2017-Dec-08 16:30N 35°29' E 139°42'0 0.0
2017-Dec-08 16:00N 35°29' E 139°42'0 0.0
2017-Dec-08 15:30N 35°29' E 139°42'0 0.0
2017-Dec-08 15:00N 35°29' E 139°42'0 0.0
2017-Dec-08 14:30N 35°29' E 139°42'0 0.0
2017-Dec-08 13:54N 35°29' E 139°42'0 0.0
2017-Dec-08 13:27N 35°29' E 139°42'0 0.0
2017-Dec-08 13:00N 35°29' E 139°42'0 0.0
2017-Dec-08 12:30N 35°29' E 139°42'0 0.0
2017-Dec-08 12:00N 35°29' E 139°42'0 0.0
2017-Dec-08 11:27N 35°29' E 139°42'0 0.0
2017-Dec-08 11:00N 35°29' E 139°42'0 0.0
2017-Dec-08 10:27N 35°29' E 139°42'0 0.0
2017-Dec-08 10:00N 35°29' E 139°42'0 0.1
2017-Dec-08 09:30N 35°29' E 139°42'4 1.4
2017-Dec-08 06:31N 35°31' E 139°46'0 8.0
2017-Dec-08 06:29N 35°31' E 139°46'0 0.5
2017-Dec-08 05:58N 35°31' E 139°46'4 7.3
2017-Dec-08 05:29N 35°27' E 139°45'510.0
2017-Dec-08 05:00N 35°24' E 139°41'3 5.2
2017-Dec-08 04:28N 35°24' E 139°38'0 0.1
2017-Dec-08 03:58N 35°24' E 139°38'0 0.0
2017-Dec-08 03:25N 35°24' E 139°38'0 0.0
2017-Dec-08 02:58N 35°24' E 139°38'0 0.0
2017-Dec-08 02:25N 35°24' E 139°38'0 0.7
2017-Dec-08 02:00N 35°24' E 139°38'1 1.3
2017-Dec-08 01:30N 35°24' E 139°39'2 4.4
2017-Dec-08 01:00N 35°24' E 139°42'5 9.6
2017-Dec-08 00:30N 35°29' E 139°42'0 0.1
2017-Dec-08 00:00N 35°29' E 139°42'0 0.0
2017-Dec-07 23:30N 35°29' E 139°42'0 0.0
2017-Dec-07 22:57N 35°29' E 139°42'0 0.0
2017-Dec-07 22:30N 35°29' E 139°42'0 0.0
2017-Dec-07 22:00N 35°29' E 139°42'0 0.0
2017-Dec-07 21:30N 35°29' E 139°42'0 0.0
2017-Dec-07 21:00N 35°29' E 139°42'0 0.0
2017-Dec-07 20:30N 35°29' E 139°42'0 0.0
2017-Dec-07 20:00N 35°29' E 139°42'0 0.0
2017-Dec-07 19:30N 35°29' E 139°42'0 0.0
2017-Dec-07 18:54N 35°29' E 139°42'0 0.0
2017-Dec-07 18:30N 35°29' E 139°42'0 0.0
2017-Dec-07 18:00N 35°29' E 139°42'0 0.0
2017-Dec-07 17:27N 35°29' E 139°42'0 0.0
2017-Dec-07 17:00N 35°29' E 139°42'0 0.0
2017-Dec-07 16:30N 35°29' E 139°42'0 0.0
2017-Dec-07 16:00N 35°29' E 139°42'0 0.0
2017-Dec-07 15:30N 35°29' E 139°42'0 0.0
2017-Dec-07 15:00N 35°29' E 139°42'0 0.0
2017-Dec-07 14:30N 35°29' E 139°42'0 0.0
2017-Dec-07 14:00N 35°29' E 139°42'0 0.0
2017-Dec-07 13:27N 35°29' E 139°42'0 0.0
2017-Dec-07 13:00N 35°29' E 139°42'0 0.0
2017-Dec-07 12:30N 35°29' E 139°42'0 0.0
2017-Dec-07 12:00N 35°29' E 139°42'0 0.0
2017-Dec-07 11:30N 35°29' E 139°42'0 0.0
2017-Dec-07 11:00N 35°29' E 139°42'0 0.0
2017-Dec-07 10:30N 35°29' E 139°42'0 0.0
2017-Dec-07 10:00N 35°29' E 139°42'0 0.0
2017-Dec-07 09:30N 35°29' E 139°42'0 0.0
2017-Dec-07 09:00N 35°29' E 139°42'0 0.0
2017-Dec-07 08:30N 35°29' E 139°42'0 0.0
2017-Dec-07 07:54N 35°29' E 139°42'0 0.0
2017-Dec-07 07:30N 35°29' E 139°42'0 0.0
2017-Dec-07 07:00N 35°29' E 139°42'2 4.1
2017-Dec-07 06:30N 35°27' E 139°43'5 8.9
2017-Dec-07 06:00N 35°30' E 139°48'1 0.8
2017-Dec-07 04:30N 35°31' E 139°47'4 7.9
2017-Dec-07 04:00N 35°28' E 139°43'3 5.7
2017-Dec-07 03:29N 35°29' E 139°40'0 0.0
2017-Dec-07 02:59N 35°29' E 139°40'0 0.0
2017-Dec-07 02:25N 35°29' E 139°40'3 7.3
2017-Dec-07 02:00N 35°26' E 139°42'3 4.4
2017-Dec-07 01:23N 35°25' E 139°39'0 0.0
2017-Dec-07 00:59N 35°25' E 139°39'0 0.0
2017-Dec-07 00:29N 35°25' E 139°39'0 0.0
2017-Dec-06 23:53N 35°25' E 139°39'0 0.0
2017-Dec-06 23:26N 35°25' E 139°39'2 3.8
2017-Dec-06 23:00N 35°23' E 139°41'510.7
2017-Dec-06 22:30N 35°29' E 139°42'0 0.6
2017-Dec-06 21:58N 35°29' E 139°42'0 0.0
2017-Dec-06 21:28N 35°29' E 139°42'0 0.0
2017-Dec-06 20:58N 35°29' E 139°42'  
2017-Dec-04 10:23N 35°29' E 139°42'0 0.0
2017-Dec-04 09:59N 35°29' E 139°42'0 0.0
2017-Dec-04 09:29N 35°29' E 139°42'0 0.0
2017-Dec-04 08:53N 35°29' E 139°42'0 0.0
2017-Dec-04 08:20N 35°29' E 139°42'0 0.0
2017-Dec-04 07:59N 35°29' E 139°42'0 0.0
2017-Dec-04 07:23N 35°29' E 139°42'0 0.0
2017-Dec-04 06:59N 35°29' E 139°42'0 0.0
2017-Dec-04 06:29N 35°29' E 139°42'0 0.0
2017-Dec-04 05:59N 35°29' E 139°42'0 0.0
2017-Dec-04 01:14N 35°29' E 139°42'0 0.0
2017-Dec-04 00:59N 35°29' E 139°42'0 0.0
2017-Dec-04 00:29N 35°29' E 139°42'0 0.0
2017-Dec-03 23:59N 35°29' E 139°42'0 0.0
2017-Dec-03 23:26N 35°29' E 139°42'0 0.0
2017-Dec-03 22:53N 35°29' E 139°42'0 0.0
2017-Dec-03 22:23N 35°29' E 139°42'0 0.0
2017-Dec-03 21:59N 35°29' E 139°42'0 0.0
2017-Dec-03 21:29N 35°29' E 139°42'0 0.0
2017-Dec-03 20:59N 35°29' E 139°42'0 0.0
2017-Dec-03 20:26N 35°29' E 139°42'0 0.0
2017-Dec-03 19:56N 35°29' E 139°42'0 0.0
2017-Dec-03 19:26N 35°29' E 139°42'0 0.0
2017-Dec-03 18:59N 35°29' E 139°42'0 0.0
2017-Dec-03 18:26N 35°29' E 139°42'0 0.0
2017-Dec-03 17:53N 35°29' E 139°42'0 0.0
2017-Dec-03 17:29N 35°29' E 139°42'0 0.0
2017-Dec-03 16:47N 35°29' E 139°42'0 0.0
2017-Dec-03 16:29N 35°29' E 139°42'0 0.0
2017-Dec-03 15:56N 35°29' E 139°42'0 0.0
2017-Dec-03 15:29N 35°29' E 139°42'0 0.0
2017-Dec-03 14:47N 35°29' E 139°42'0 0.0
2017-Dec-03 14:29N 35°29' E 139°42'0 0.0
2017-Dec-03 13:56N 35°29' E 139°42'0 0.0
2017-Dec-03 13:26N 35°29' E 139°42'0 0.0
2017-Dec-03 12:50N 35°29' E 139°42'0 0.0
2017-Dec-03 12:29N 35°29' E 139°42'0 0.0
2017-Dec-03 11:59N 35°29' E 139°42'0 0.0
2017-Dec-03 11:26N 35°29' E 139°42'0 0.0
2017-Dec-03 10:59N 35°29' E 139°42'0 0.0
2017-Dec-03 10:26N 35°29' E 139°42'0 0.0
2017-Dec-03 09:59N 35°29' E 139°42'0 0.0
2017-Dec-03 09:26N 35°29' E 139°42'0 0.0
2017-Dec-03 08:59N 35°29' E 139°42'0 0.0
2017-Dec-03 08:29N 35°29' E 139°42'0 0.0
2017-Dec-03 07:56N 35°29' E 139°42'0 0.0
2017-Dec-03 07:29N 35°29' E 139°42'0 0.0
2017-Dec-03 06:59N 35°29' E 139°42'0 0.0
2017-Dec-03 06:29N 35°29' E 139°42'0 0.0
2017-Dec-03 05:59N 35°29' E 139°42'0 0.0
2017-Dec-03 05:26N 35°29' E 139°42'0 0.0
2017-Dec-03 04:59N 35°29' E 139°42'0 0.0
2017-Dec-03 04:29N 35°29' E 139°42'2 3.4
2017-Dec-03 04:00N 35°30' E 139°43'3 1.8
2017-Dec-03 02:29N 35°31' E 139°46'3 6.0
2017-Dec-03 02:00N 35°28' E 139°46'510.1
2017-Dec-03 01:31N 35°24' E 139°42'2 3.6
2017-Dec-03 00:57N 35°24' E 139°40'0 0.0
2017-Dec-03 00:30N 35°24' E 139°40'0 0.0
2017-Dec-03 00:00N 35°24' E 139°40'0 0.0
2017-Dec-02 23:30N 35°24' E 139°40'2 3.3
2017-Dec-02 23:01N 35°23' E 139°41'510.9
2017-Dec-02 22:30N 35°29' E 139°42'0 0.4
2017-Dec-02 22:00N 35°29' E 139°42'0 0.0
2017-Dec-02 21:30N 35°29' E 139°42'0 0.0
2017-Dec-02 21:00N 35°29' E 139°42'0 0.0
2017-Dec-02 20:27N 35°29' E 139°42'0 0.0
2017-Dec-02 20:00N 35°29' E 139°42'0 0.0
2017-Dec-02 19:30N 35°29' E 139°42'0 0.0
2017-Dec-02 19:00N 35°29' E 139°42'0 0.0
2017-Dec-02 18:30N 35°29' E 139°42'0 0.0
2017-Dec-02 18:00N 35°29' E 139°42'0 0.0
2017-Dec-02 17:30N 35°29' E 139°42'0 0.0
2017-Dec-02 17:00N 35°29' E 139°42'0 0.0
2017-Dec-02 16:30N 35°29' E 139°42'0 0.0
2017-Dec-02 16:00N 35°29' E 139°42'0 0.0
2017-Dec-02 15:27N 35°29' E 139°42'0 0.0
2017-Dec-02 15:00N 35°29' E 139°42'0 0.0
2017-Dec-02 14:30N 35°29' E 139°42'0 0.0
2017-Dec-02 13:57N 35°29' E 139°42'0 0.0
2017-Dec-02 13:30N 35°29' E 139°42'0 0.0
2017-Dec-02 13:00N 35°29' E 139°42'0 0.0
2017-Dec-02 12:30N 35°29' E 139°42'0 0.0
2017-Dec-02 12:00N 35°29' E 139°42'0 0.0
2017-Dec-02 11:30N 35°29' E 139°42'0 0.0
2017-Dec-02 11:00N 35°29' E 139°42'0 0.0
2017-Dec-02 10:30N 35°29' E 139°42'0 0.0
2017-Dec-02 10:00N 35°29' E 139°42'0 0.0
2017-Dec-02 09:30N 35°29' E 139°42'0 0.0
2017-Dec-02 08:57N 35°29' E 139°42'0 0.0
2017-Dec-02 08:30N 35°29' E 139°42'0 0.0
2017-Dec-02 08:00N 35°29' E 139°42'0 0.0
2017-Dec-02 07:30N 35°29' E 139°42'0 0.0
2017-Dec-02 07:00N 35°29' E 139°42'0 0.0
2017-Dec-02 06:30N 35°29' E 139°42'0 0.0
2017-Dec-02 06:00N 35°29' E 139°42'0 0.0
2017-Dec-02 05:30N 35°29' E 139°42'0 0.0
2017-Dec-02 05:00N 35°29' E 139°42'0 0.0
2017-Dec-02 04:30N 35°29' E 139°42'2 3.2
2017-Dec-02 03:58N 35°30' E 139°43'3 5.6
2017-Dec-02 03:29N 35°31' E 139°46'0 0.0
2017-Dec-02 02:59N 35°31' E 139°46'0 0.0
2017-Dec-02 02:29N 35°31' E 139°46'1 2.3
2017-Dec-02 02:00N 35°30' E 139°47'5 9.9
2017-Dec-02 01:30N 35°26' E 139°44'4 7.9
2017-Dec-02 01:00N 35°24' E 139°40'0 0.7
2017-Dec-02 00:27N 35°24' E 139°40'0 0.0
2017-Dec-01 23:58N 35°24' E 139°40'0 0.0
2017-Dec-01 23:31N 35°24' E 139°40'0 0.7
2017-Dec-01 23:00N 35°24' E 139°40'3 5.1
2017-Dec-01 22:30N 35°26' E 139°42'3 6.1
2017-Dec-01 21:58N 35°29' E 139°42'0 0.1
2017-Dec-01 21:28N 35°29' E 139°42'0 0.0
2017-Dec-01 20:58N 35°29' E 139°42'0 0.0
2017-Dec-01 20:28N 35°29' E 139°42'0 0.0
2017-Dec-01 19:58N 35°29' E 139°42'0 0.0
2017-Dec-01 19:28N 35°29' E 139°42'0 0.0
2017-Dec-01 18:58N 35°29' E 139°42'0 0.0
2017-Dec-01 18:25N 35°29' E 139°42'0 0.0
2017-Dec-01 17:58N 35°29' E 139°42'0 0.0
2017-Dec-01 17:28N 35°29' E 139°42'0 0.0
2017-Dec-01 16:58N 35°29' E 139°42'  
Track history (hours):
 
Tides and Currents Weather Stations Pressure Air Temp Water Temp Dewpoint Dewpoint Depression Visibility Wind Speed Wind Dir Waves Ship Positions

No.21 Houeimaru

Last reported at 2017-Dec-11 16:57 UTC. Time now 2017-Dec-11 22:56 UTC.
Position N 35°29' E 139°42'.

Length 50 m.

Type: Tanker. MMSI: 431009275.

Date/timePositionNaut miles runAvg speedWind from/ knotsBaromVisibWave heightAir tempDewpointWater temp
2017-Dec-11 16:57N 35°29' E 139°42'0 0.0
2017-Dec-11 16:30N 35°29' E 139°42'0 0.0
2017-Dec-11 15:54N 35°29' E 139°42'0 0.0
2017-Dec-11 15:30N 35°29' E 139°42'0 0.0
2017-Dec-11 15:00N 35°29' E 139°42'0 0.0
2017-Dec-11 14:27N 35°29' E 139°42'0 0.0
2017-Dec-11 14:00N 35°29' E 139°42'0 0.0
2017-Dec-11 13:24N 35°29' E 139°42'0 0.0
2017-Dec-11 13:00N 35°29' E 139°42'0 0.0
2017-Dec-11 12:24N 35°29' E 139°42'0 0.0
2017-Dec-11 12:00N 35°29' E 139°42'0 0.0
2017-Dec-11 11:18N 35°29' E 139°42'0 0.0
2017-Dec-11 10:57N 35°29' E 139°42'0 0.0
2017-Dec-11 10:21N 35°29' E 139°42'0 0.0
2017-Dec-11 09:57N 35°29' E 139°42'0 0.0
2017-Dec-11 09:30N 35°29' E 139°42'0 0.0
2017-Dec-11 09:00N 35°29' E 139°42'0 0.0
2017-Dec-11 08:30N 35°29' E 139°42'0 0.0
2017-Dec-11 07:51N 35°29' E 139°42'0 0.0
2017-Dec-11 07:03N 35°29' E 139°42'0 0.0
2017-Dec-11 06:51N 35°29' E 139°42'0 0.0
2017-Dec-11 06:30N 35°29' E 139°42'0 0.0
2017-Dec-11 06:00N 35°29' E 139°42'3 5.5
2017-Dec-11 05:30N 35°30' E 139°45'1 0.6
2017-Dec-11 03:16N 35°31' E 139°46'2 6.1
2017-Dec-11 03:00N 35°30' E 139°47'510.1
2017-Dec-11 02:30N 35°26' E 139°44'4 8.1
2017-Dec-11 02:00N 35°24' E 139°39'1 1.4
2017-Dec-11 01:22N 35°24' E 139°38'0 0.0
2017-Dec-11 00:58N 35°24' E 139°38'0 0.0
2017-Dec-11 00:28N 35°24' E 139°38'0 0.0
2017-Dec-10 23:58N 35°24' E 139°38'0 0.0
2017-Dec-10 23:28N 35°24' E 139°38'0 1.0
2017-Dec-10 23:00N 35°25' E 139°39'3 4.9
2017-Dec-10 22:30N 35°24' E 139°41'4 8.7
2017-Dec-10 22:00N 35°28' E 139°42'1 2.2
2017-Dec-10 21:24N 35°29' E 139°42'0 0.0
2017-Dec-10 21:00N 35°29' E 139°42'0 0.0
2017-Dec-10 20:30N 35°29' E 139°42'0 0.0
2017-Dec-10 19:51N 35°29' E 139°42'0 0.0
2017-Dec-10 19:30N 35°29' E 139°42'0 0.0
2017-Dec-10 18:51N 35°29' E 139°42'0 0.0
2017-Dec-10 18:30N 35°29' E 139°42'0 0.0
2017-Dec-10 18:00N 35°29' E 139°42'0 0.0
2017-Dec-10 17:30N 35°29' E 139°42'0 0.0
2017-Dec-10 16:57N 35°29' E 139°42'0 0.0
2017-Dec-10 16:30N 35°29' E 139°42'0 0.0
2017-Dec-10 15:57N 35°29' E 139°42'0 0.0
2017-Dec-10 15:24N 35°29' E 139°42'0 0.0
2017-Dec-10 14:57N 35°29' E 139°42'0 0.0
2017-Dec-10 14:30N 35°29' E 139°42'0 0.0
2017-Dec-10 14:00N 35°29' E 139°42'0 0.0
2017-Dec-10 13:30N 35°29' E 139°42'0 0.0
2017-Dec-10 12:54N 35°29' E 139°42'0 0.0
2017-Dec-10 12:27N 35°29' E 139°42'0 0.0
2017-Dec-10 12:00N 35°29' E 139°42'0 0.0
2017-Dec-10 11:30N 35°29' E 139°42'0 0.0
2017-Dec-10 10:54N 35°29' E 139°42'0 0.0
2017-Dec-10 10:30N 35°29' E 139°42'0 0.0
2017-Dec-10 10:00N 35°29' E 139°42'0 0.0
2017-Dec-10 09:24N 35°29' E 139°42'0 0.0
2017-Dec-10 08:51N 35°29' E 139°42'0 0.0
2017-Dec-10 08:30N 35°29' E 139°42'0 0.0
2017-Dec-10 08:00N 35°29' E 139°42'0 0.0
2017-Dec-10 07:30N 35°29' E 139°42'0 0.0
2017-Dec-10 07:00N 35°29' E 139°42'0 0.0
2017-Dec-10 06:27N 35°29' E 139°42'0 0.0
2017-Dec-10 06:00N 35°29' E 139°42'0 0.0
2017-Dec-10 05:30N 35°29' E 139°42'0 0.0
2017-Dec-10 04:57N 35°29' E 139°42'2 5.1
2017-Dec-10 04:30N 35°27' E 139°43'4 7.9
2017-Dec-10 03:58N 35°30' E 139°48'2 1.3
2017-Dec-10 02:43N 35°31' E 139°46'0 0.0
2017-Dec-10 02:27N 35°31' E 139°46'3 5.5
2017-Dec-10 02:00N 35°28' E 139°46'510.1
2017-Dec-10 01:30N 35°24' E 139°42'2 4.0
2017-Dec-10 01:00N 35°24' E 139°40'0 0.0
2017-Dec-10 00:30N 35°24' E 139°40'0 0.0
2017-Dec-09 23:57N 35°24' E 139°40'0 0.0
2017-Dec-09 23:27N 35°24' E 139°40'2 3.7
2017-Dec-09 23:00N 35°23' E 139°41'610.5
2017-Dec-09 22:28N 35°29' E 139°42'0 0.2
2017-Dec-09 21:57N 35°29' E 139°42'0 0.0
2017-Dec-09 21:24N 35°29' E 139°42'0 0.0
2017-Dec-09 21:00N 35°29' E 139°42'0 0.0
2017-Dec-09 20:30N 35°29' E 139°42'0 0.0
2017-Dec-09 19:54N 35°29' E 139°42'0 0.0
2017-Dec-09 19:30N 35°29' E 139°42'0 0.0
2017-Dec-09 19:00N 35°29' E 139°42'0 0.0
2017-Dec-09 18:30N 35°29' E 139°42'0 0.0
2017-Dec-09 18:00N 35°29' E 139°42'0 0.0
2017-Dec-09 17:30N 35°29' E 139°42'0 0.0
2017-Dec-09 17:00N 35°29' E 139°42'0 0.0
2017-Dec-09 16:30N 35°29' E 139°42'0 0.0
2017-Dec-09 16:00N 35°29' E 139°42'0 0.0
2017-Dec-09 15:27N 35°29' E 139°42'0 0.0
2017-Dec-09 15:00N 35°29' E 139°42'0 0.0
2017-Dec-09 14:30N 35°29' E 139°42'0 0.0
2017-Dec-09 13:51N 35°29' E 139°42'0 0.0
2017-Dec-09 13:24N 35°29' E 139°42'0 0.0
2017-Dec-09 13:00N 35°29' E 139°42'0 0.0
2017-Dec-09 12:30N 35°29' E 139°42'0 0.0
2017-Dec-09 11:54N 35°29' E 139°42'0 0.0
2017-Dec-09 11:27N 35°29' E 139°42'0 0.0
2017-Dec-09 11:00N 35°29' E 139°42'0 0.0
2017-Dec-09 10:27N 35°29' E 139°42'0 0.0
2017-Dec-09 09:57N 35°29' E 139°42'0 0.0
2017-Dec-09 09:30N 35°29' E 139°42'0 0.0
2017-Dec-09 08:57N 35°29' E 139°42'0 0.0
2017-Dec-09 08:24N 35°29' E 139°42'0 0.0
2017-Dec-09 07:54N 35°29' E 139°42'0 0.0
2017-Dec-09 07:30N 35°29' E 139°42'0 0.0
2017-Dec-09 06:48N 35°29' E 139°42'0 0.0
2017-Dec-09 06:30N 35°29' E 139°42'0 0.0
2017-Dec-09 05:57N 35°29' E 139°42'0 0.0
2017-Dec-09 05:24N 35°29' E 139°42'0 0.0
2017-Dec-09 05:00N 35°29' E 139°42'0 0.0
2017-Dec-09 04:24N 35°29' E 139°42'0 0.0
2017-Dec-09 04:00N 35°29' E 139°42'0 0.0
2017-Dec-09 03:27N 35°29' E 139°42'0 0.0
2017-Dec-09 02:57N 35°29' E 139°42'0 0.0
2017-Dec-09 02:24N 35°29' E 139°42'0 0.0
2017-Dec-09 01:57N 35°29' E 139°42'0 0.0
2017-Dec-09 01:27N 35°29' E 139°42'0 0.0
2017-Dec-09 00:51N 35°29' E 139°42'0 0.0
2017-Dec-09 00:27N 35°29' E 139°42'0 0.0
2017-Dec-08 23:57N 35°29' E 139°42'0 0.0
2017-Dec-08 23:30N 35°29' E 139°42'0 0.0
2017-Dec-08 23:00N 35°29' E 139°42'0 0.0
2017-Dec-08 22:21N 35°29' E 139°42'0 0.0
2017-Dec-08 22:00N 35°29' E 139°42'0 0.0
2017-Dec-08 21:27N 35°29' E 139°42'0 0.0
2017-Dec-08 21:00N 35°29' E 139°42'0 0.0
2017-Dec-08 20:21N 35°29' E 139°42'0 0.0
2017-Dec-08 20:00N 35°29' E 139°42'0 0.0
2017-Dec-08 19:30N 35°29' E 139°42'0 0.0
2017-Dec-08 19:00N 35°29' E 139°42'0 0.0
2017-Dec-08 18:30N 35°29' E 139°42'0 0.0
2017-Dec-08 18:00N 35°29' E 139°42'0 0.0
2017-Dec-08 17:24N 35°29' E 139°42'0 0.0
2017-Dec-08 16:51N 35°29' E 139°42'0 0.0
2017-Dec-08 16:30N 35°29' E 139°42'0 0.0
2017-Dec-08 16:00N 35°29' E 139°42'0 0.0
2017-Dec-08 15:30N 35°29' E 139°42'0 0.0
2017-Dec-08 15:00N 35°29' E 139°42'0 0.0
2017-Dec-08 14:30N 35°29' E 139°42'0 0.0
2017-Dec-08 13:54N 35°29' E 139°42'0 0.0
2017-Dec-08 13:27N 35°29' E 139°42'0 0.0
2017-Dec-08 13:00N 35°29' E 139°42'0 0.0
2017-Dec-08 12:30N 35°29' E 139°42'0 0.0
2017-Dec-08 12:00N 35°29' E 139°42'0 0.0
2017-Dec-08 11:27N 35°29' E 139°42'0 0.0
2017-Dec-08 11:00N 35°29' E 139°42'0 0.0
2017-Dec-08 10:27N 35°29' E 139°42'0 0.0
2017-Dec-08 10:00N 35°29' E 139°42'0 0.1
2017-Dec-08 09:30N 35°29' E 139°42'4 1.4
2017-Dec-08 06:31N 35°31' E 139°46'0 8.0
2017-Dec-08 06:29N 35°31' E 139°46'0 0.5
2017-Dec-08 05:58N 35°31' E 139°46'4 7.3
2017-Dec-08 05:29N 35°27' E 139°45'510.0
2017-Dec-08 05:00N 35°24' E 139°41'3 5.2
2017-Dec-08 04:28N 35°24' E 139°38'0 0.1
2017-Dec-08 03:58N 35°24' E 139°38'0 0.0
2017-Dec-08 03:25N 35°24' E 139°38'0 0.0
2017-Dec-08 02:58N 35°24' E 139°38'0 0.0
2017-Dec-08 02:25N 35°24' E 139°38'0 0.7
2017-Dec-08 02:00N 35°24' E 139°38'1 1.3
2017-Dec-08 01:30N 35°24' E 139°39'2 4.4
2017-Dec-08 01:00N 35°24' E 139°42'5 9.6
2017-Dec-08 00:30N 35°29' E 139°42'0 0.1
2017-Dec-08 00:00N 35°29' E 139°42'0 0.0
2017-Dec-07 23:30N 35°29' E 139°42'0 0.0
2017-Dec-07 22:57N 35°29' E 139°42'0 0.0
2017-Dec-07 22:30N 35°29' E 139°42'0 0.0
2017-Dec-07 22:00N 35°29' E 139°42'0 0.0
2017-Dec-07 21:30N 35°29' E 139°42'0 0.0
2017-Dec-07 21:00N 35°29' E 139°42'0 0.0
2017-Dec-07 20:30N 35°29' E 139°42'0 0.0
2017-Dec-07 20:00N 35°29' E 139°42'0 0.0
2017-Dec-07 19:30N 35°29' E 139°42'0 0.0
2017-Dec-07 18:54N 35°29' E 139°42'0 0.0
2017-Dec-07 18:30N 35°29' E 139°42'0 0.0
2017-Dec-07 18:00N 35°29' E 139°42'0 0.0
2017-Dec-07 17:27N 35°29' E 139°42'0 0.0
2017-Dec-07 17:00N 35°29' E 139°42'0 0.0
2017-Dec-07 16:30N 35°29' E 139°42'0 0.0
2017-Dec-07 16:00N 35°29' E 139°42'0 0.0
2017-Dec-07 15:30N 35°29' E 139°42'0 0.0
2017-Dec-07 15:00N 35°29' E 139°42'0 0.0
2017-Dec-07 14:30N 35°29' E 139°42'0 0.0
2017-Dec-07 14:00N 35°29' E 139°42'0 0.0
2017-Dec-07 13:27N 35°29' E 139°42'0 0.0
2017-Dec-07 13:00N 35°29' E 139°42'0 0.0
2017-Dec-07 12:30N 35°29' E 139°42'0 0.0
2017-Dec-07 12:00N 35°29' E 139°42'0 0.0
2017-Dec-07 11:30N 35°29' E 139°42'0 0.0
2017-Dec-07 11:00N 35°29' E 139°42'0 0.0
2017-Dec-07 10:30N 35°29' E 139°42'0 0.0
2017-Dec-07 10:00N 35°29' E 139°42'0 0.0
2017-Dec-07 09:30N 35°29' E 139°42'0 0.0
2017-Dec-07 09:00N 35°29' E 139°42'0 0.0
2017-Dec-07 08:30N 35°29' E 139°42'0 0.0
2017-Dec-07 07:54N 35°29' E 139°42'0 0.0
2017-Dec-07 07:30N 35°29' E 139°42'0 0.0
2017-Dec-07 07:00N 35°29' E 139°42'2 4.1
2017-Dec-07 06:30N 35°27' E 139°43'5 8.9
2017-Dec-07 06:00N 35°30' E 139°48'1 0.8
2017-Dec-07 04:30N 35°31' E 139°47'4 7.9
2017-Dec-07 04:00N 35°28' E 139°43'3 5.7
2017-Dec-07 03:29N 35°29' E 139°40'0 0.0
2017-Dec-07 02:59N 35°29' E 139°40'0 0.0
2017-Dec-07 02:25N 35°29' E 139°40'3 7.3
2017-Dec-07 02:00N 35°26' E 139°42'3 4.4
2017-Dec-07 01:23N 35°25' E 139°39'0 0.0
2017-Dec-07 00:59N 35°25' E 139°39'0 0.0
2017-Dec-07 00:29N 35°25' E 139°39'0 0.0
2017-Dec-06 23:53N 35°25' E 139°39'0 0.0
2017-Dec-06 23:26N 35°25' E 139°39'2 3.8
2017-Dec-06 23:00N 35°23' E 139°41'510.7
2017-Dec-06 22:30N 35°29' E 139°42'0 0.6
2017-Dec-06 21:58N 35°29' E 139°42'0 0.0
2017-Dec-06 21:28N 35°29' E 139°42'0 0.0
2017-Dec-06 20:58N 35°29' E 139°42'  
2017-Dec-04 10:23N 35°29' E 139°42'0 0.0
2017-Dec-04 09:59N 35°29' E 139°42'0 0.0
2017-Dec-04 09:29N 35°29' E 139°42'0 0.0
2017-Dec-04 08:53N 35°29' E 139°42'0 0.0
2017-Dec-04 08:20N 35°29' E 139°42'0 0.0
2017-Dec-04 07:59N 35°29' E 139°42'0 0.0
2017-Dec-04 07:23N 35°29' E 139°42'0 0.0
2017-Dec-04 06:59N 35°29' E 139°42'0 0.0
2017-Dec-04 06:29N 35°29' E 139°42'0 0.0
2017-Dec-04 05:59N 35°29' E 139°42'0 0.0
2017-Dec-04 01:14N 35°29' E 139°42'0 0.0
2017-Dec-04 00:59N 35°29' E 139°42'0 0.0
2017-Dec-04 00:29N 35°29' E 139°42'0 0.0
2017-Dec-03 23:59N 35°29' E 139°42'0 0.0
2017-Dec-03 23:26N 35°29' E 139°42'0 0.0
2017-Dec-03 22:53N 35°29' E 139°42'0 0.0
2017-Dec-03 22:23N 35°29' E 139°42'0 0.0
2017-Dec-03 21:59N 35°29' E 139°42'0 0.0
2017-Dec-03 21:29N 35°29' E 139°42'0 0.0
2017-Dec-03 20:59N 35°29' E 139°42'0 0.0
2017-Dec-03 20:26N 35°29' E 139°42'0 0.0
2017-Dec-03 19:56N 35°29' E 139°42'0 0.0
2017-Dec-03 19:26N 35°29' E 139°42'0 0.0
2017-Dec-03 18:59N 35°29' E 139°42'0 0.0
2017-Dec-03 18:26N 35°29' E 139°42'0 0.0
2017-Dec-03 17:53N 35°29' E 139°42'0 0.0
2017-Dec-03 17:29N 35°29' E 139°42'0 0.0
2017-Dec-03 16:47N 35°29' E 139°42'0 0.0
2017-Dec-03 16:29N 35°29' E 139°42'0 0.0
2017-Dec-03 15:56N 35°29' E 139°42'0 0.0
2017-Dec-03 15:29N 35°29' E 139°42'0 0.0
2017-Dec-03 14:47N 35°29' E 139°42'0 0.0
2017-Dec-03 14:29N 35°29' E 139°42'0 0.0
2017-Dec-03 13:56N 35°29' E 139°42'0 0.0
2017-Dec-03 13:26N 35°29' E 139°42'0 0.0
2017-Dec-03 12:50N 35°29' E 139°42'0 0.0
2017-Dec-03 12:29N 35°29' E 139°42'0 0.0
2017-Dec-03 11:59N 35°29' E 139°42'0 0.0
2017-Dec-03 11:26N 35°29' E 139°42'0 0.0
2017-Dec-03 10:59N 35°29' E 139°42'0 0.0
2017-Dec-03 10:26N 35°29' E 139°42'0 0.0
2017-Dec-03 09:59N 35°29' E 139°42'0 0.0
2017-Dec-03 09:26N 35°29' E 139°42'0 0.0
2017-Dec-03 08:59N 35°29' E 139°42'0 0.0
2017-Dec-03 08:29N 35°29' E 139°42'0 0.0
2017-Dec-03 07:56N 35°29' E 139°42'0 0.0
2017-Dec-03 07:29N 35°29' E 139°42'0 0.0
2017-Dec-03 06:59N 35°29' E 139°42'0 0.0
2017-Dec-03 06:29N 35°29' E 139°42'0 0.0
2017-Dec-03 05:59N 35°29' E 139°42'0 0.0
2017-Dec-03 05:26N 35°29' E 139°42'0 0.0
2017-Dec-03 04:59N 35°29' E 139°42'0 0.0
2017-Dec-03 04:29N 35°29' E 139°42'2 3.4
2017-Dec-03 04:00N 35°30' E 139°43'3 1.8
2017-Dec-03 02:29N 35°31' E 139°46'3 6.0
2017-Dec-03 02:00N 35°28' E 139°46'510.1
2017-Dec-03 01:31N 35°24' E 139°42'2 3.6
2017-Dec-03 00:57N 35°24' E 139°40'0 0.0
2017-Dec-03 00:30N 35°24' E 139°40'0 0.0
2017-Dec-03 00:00N 35°24' E 139°40'0 0.0
2017-Dec-02 23:30N 35°24' E 139°40'2 3.3
2017-Dec-02 23:01N 35°23' E 139°41'510.9
2017-Dec-02 22:30N 35°29' E 139°42'0 0.4
2017-Dec-02 22:00N 35°29' E 139°42'0 0.0
2017-Dec-02 21:30N 35°29' E 139°42'0 0.0
2017-Dec-02 21:00N 35°29' E 139°42'0 0.0
2017-Dec-02 20:27N 35°29' E 139°42'0 0.0
2017-Dec-02 20:00N 35°29' E 139°42'0 0.0
2017-Dec-02 19:30N 35°29' E 139°42'0 0.0
2017-Dec-02 19:00N 35°29' E 139°42'0 0.0
2017-Dec-02 18:30N 35°29' E 139°42'0 0.0
2017-Dec-02 18:00N 35°29' E 139°42'0 0.0
2017-Dec-02 17:30N 35°29' E 139°42'0 0.0
2017-Dec-02 17:00N 35°29' E 139°42'0 0.0
2017-Dec-02 16:30N 35°29' E 139°42'0 0.0
2017-Dec-02 16:00N 35°29' E 139°42'0 0.0
2017-Dec-02 15:27N 35°29' E 139°42'0 0.0
2017-Dec-02 15:00N 35°29' E 139°42'0 0.0
2017-Dec-02 14:30N 35°29' E 139°42'0 0.0
2017-Dec-02 13:57N 35°29' E 139°42'0 0.0
2017-Dec-02 13:30N 35°29' E 139°42'0 0.0
2017-Dec-02 13:00N 35°29' E 139°42'0 0.0
2017-Dec-02 12:30N 35°29' E 139°42'0 0.0
2017-Dec-02 12:00N 35°29' E 139°42'0 0.0
2017-Dec-02 11:30N 35°29' E 139°42'0 0.0
2017-Dec-02 11:00N 35°29' E 139°42'0 0.0
2017-Dec-02 10:30N 35°29' E 139°42'0 0.0
2017-Dec-02 10:00N 35°29' E 139°42'0 0.0
2017-Dec-02 09:30N 35°29' E 139°42'0 0.0
2017-Dec-02 08:57N 35°29' E 139°42'0 0.0
2017-Dec-02 08:30N 35°29' E 139°42'0 0.0
2017-Dec-02 08:00N 35°29' E 139°42'0 0.0
2017-Dec-02 07:30N 35°29' E 139°42'0 0.0
2017-Dec-02 07:00N 35°29' E 139°42'0 0.0
2017-Dec-02 06:30N 35°29' E 139°42'0 0.0
2017-Dec-02 06:00N 35°29' E 139°42'0 0.0
2017-Dec-02 05:30N 35°29' E 139°42'0 0.0
2017-Dec-02 05:00N 35°29' E 139°42'0 0.0
2017-Dec-02 04:30N 35°29' E 139°42'2 3.2
2017-Dec-02 03:58N 35°30' E 139°43'3 5.6
2017-Dec-02 03:29N 35°31' E 139°46'0 0.0
2017-Dec-02 02:59N 35°31' E 139°46'0 0.0
2017-Dec-02 02:29N 35°31' E 139°46'1 2.3
2017-Dec-02 02:00N 35°30' E 139°47'5 9.9
2017-Dec-02 01:30N 35°26' E 139°44'4 7.9
2017-Dec-02 01:00N 35°24' E 139°40'0 0.7
2017-Dec-02 00:27N 35°24' E 139°40'0 0.0
2017-Dec-01 23:58N 35°24' E 139°40'0 0.0
2017-Dec-01 23:31N 35°24' E 139°40'0 0.7
2017-Dec-01 23:00N 35°24' E 139°40'3 5.1
2017-Dec-01 22:30N 35°26' E 139°42'3 6.1
2017-Dec-01 21:58N 35°29' E 139°42'0 0.1
2017-Dec-01 21:28N 35°29' E 139°42'0 0.0
2017-Dec-01 20:58N 35°29' E 139°42'0 0.0
2017-Dec-01 20:28N 35°29' E 139°42'0 0.0
2017-Dec-01 19:58N 35°29' E 139°42'0 0.0
2017-Dec-01 19:28N 35°29' E 139°42'0 0.0
2017-Dec-01 18:58N 35°29' E 139°42'0 0.0
2017-Dec-01 18:25N 35°29' E 139°42'0 0.0
2017-Dec-01 17:58N 35°29' E 139°42'0 0.0
2017-Dec-01 17:28N 35°29' E 139°42'0 0.0
2017-Dec-01 16:58N 35°29' E 139°42'  

Dump ship's entire track history